Time;durP1;ratioP1;P1;durP2;ratioP2;P2;SDS_P1;SDS_P2;PMS_P1;PMS_P2;Temp;Humidity;BMP_temperature;BMP_pressure;BME280_temperature;BME280_humidity;BME280_pressure;Samples;Min_cycle;Max_cycle;Signal;HPM_P1;HPM_P2
2022/11/27 00:00:34;;;;;;;19.50;10.02;;;;;;;-0.60;100.00;99821.31;4201927;28;20047;-74
2022/11/27 00:02:34;;;;;;;19.33;10.25;;;;;;;-0.53;100.00;99815.63;4201178;28;20106;-74
2022/11/27 00:04:35;;;;;;;23.55;11.30;;;;;;;-0.50;100.00;99816.97;4201934;28;20612;-74
2022/11/27 00:06:38;;;;;;;15.68;9.95;;;;;;;-0.49;100.00;99805.84;4201710;28;20111;-74
2022/11/27 00:08:38;;;;;;;14.82;9.55;;;;;;;-0.45;100.00;99809.63;4201282;28;20042;-74
2022/11/27 00:10:39;;;;;;;22.30;11.45;;;;;;;-0.49;100.00;99805.84;4201854;28;20215;-74
2022/11/27 00:12:39;;;;;;;16.50;11.63;;;;;;;-0.50;100.00;99801.47;4200457;28;20074;-74
2022/11/27 00:14:39;;;;;;;20.60;11.77;;;;;;;-0.52;100.00;99792.78;4201671;28;20430;-74
2022/11/27 00:16:40;;;;;;;20.95;12.27;;;;;;;-0.50;100.00;99792.50;4200181;28;20052;-74
2022/11/27 00:18:41;;;;;;;20.77;11.63;;;;;;;-0.58;100.00;99777.53;4200847;28;20120;-74
2022/11/27 00:20:41;;;;;;;20.85;11.77;;;;;;;-0.68;100.00;99780.28;4183120;28;20665;-74
2022/11/27 00:22:41;;;;;;;17.05;10.68;;;;;;;-0.80;100.00;99782.47;4200608;28;20036;-74
2022/11/27 00:24:42;;;;;;;17.17;11.13;;;;;;;-0.73;100.00;99788.44;4201571;28;20170;-74
2022/11/27 00:26:43;;;;;;;22.17;10.65;;;;;;;-0.67;100.00;99787.34;4201345;28;20507;-74
2022/11/27 00:28:43;;;;;;;21.00;11.45;;;;;;;-0.74;100.00;99782.19;4200658;28;20075;-74
2022/11/27 00:30:43;;;;;;;21.15;12.10;;;;;;;-0.82;100.00;99782.75;4201843;28;20326;-74
2022/11/27 00:32:44;;;;;;;19.30;11.73;;;;;;;-0.93;100.00;99776.47;4199917;28;20081;-74
2022/11/27 00:34:44;;;;;;;17.23;10.32;;;;;;;-0.88;100.00;99778.38;4201657;28;20056;-74
2022/11/27 00:36:44;;;;;;;15.27;10.82;;;;;;;-0.90;100.00;99775.13;4201950;28;20376;-74
2022/11/27 00:38:45;;;;;;;17.55;11.27;;;;;;;-0.91;100.00;99784.34;4200898;28;20048;-74
2022/11/27 00:40:46;;;;;;;29.60;13.63;;;;;;;-0.89;100.00;99793.06;4200237;28;20047;-74
2022/11/27 00:42:46;;;;;;;49.80;20.23;;;;;;;-0.92;100.00;99788.16;4200109;28;20036;-74
2022/11/27 00:44:46;;;;;;;39.20;18.67;;;;;;;-1.00;100.00;99780.53;4197625;28;20472;-74
2022/11/27 00:46:47;;;;;;;39.20;18.42;;;;;;;-1.09;100.00;99780.25;4199890;28;20455;-74
2022/11/27 00:48:47;;;;;;;50.72;22.13;;;;;;;-1.18;100.00;99782.69;4200963;28;20640;-74
2022/11/27 00:50:47;;;;;;;46.58;19.45;;;;;;;-1.20;100.00;99784.03;4199814;28;20040;-74
2022/11/27 00:52:48;;;;;;;38.15;19.05;;;;;;;-1.24;100.00;99775.63;4199199;28;20123;-74
2022/11/27 00:54:48;;;;;;;37.35;16.65;;;;;;;-1.18;100.00;99785.41;4184658;28;20074;-74
2022/11/27 00:56:48;;;;;;;32.92;15.70;;;;;;;-1.16;100.00;99782.41;4201273;28;20139;-74
2022/11/27 00:58:49;;;;;;;28.27;14.68;;;;;;;-1.14;100.00;99775.66;4202153;28;20472;-74
2022/11/27 01:00:58;;;;;;;29.23;15.82;;;;;;;-1.20;100.00;99774.00;4201348;28;20044;-75
2022/11/27 01:02:58;;;;;;;25.40;13.77;;;;;;;-1.29;100.00;99789.19;4201888;28;20054;-74
2022/11/27 01:04:58;;;;;;;28.38;14.07;;;;;;;-1.39;100.00;99775.59;4202385;28;20367;-74
2022/11/27 01:06:59;;;;;;;27.15;13.05;;;;;;;-1.46;100.00;99777.75;4202517;28;20040;-74
2022/11/27 01:09:00;;;;;;;23.70;13.13;;;;;;;-1.53;100.00;99775.28;4201994;28;20105;-74
2022/11/27 01:11:00;;;;;;;21.52;11.38;;;;;;;-1.59;100.00;99778.22;4200819;28;20044;-74
2022/11/27 01:13:01;;;;;;;21.67;11.30;;;;;;;-1.65;100.00;99784.75;4200417;28;20040;-74
2022/11/27 01:15:02;;;;;;;20.08;10.10;;;;;;;-1.54;100.00;99783.69;4199735;28;20036;-74
2022/11/27 01:17:02;;;;;;;21.92;10.45;;;;;;;-1.46;100.00;99781.28;4201063;28;20044;-74
2022/11/27 01:19:03;;;;;;;18.05;11.10;;;;;;;-1.45;100.00;99769.31;4201854;28;20047;-76
2022/11/27 01:21:04;;;;;;;16.42;10.48;;;;;;;-1.37;100.00;99776.13;4200949;28;20380;-74
2022/11/27 01:23:06;;;;;;;21.05;11.20;;;;;;;-1.30;100.00;99779.41;4200422;28;20140;-74
2022/11/27 01:25:07;;;;;;;19.50;10.83;;;;;;;-1.37;100.00;99773.41;4199428;28;20076;-74
2022/11/27 01:27:07;;;;;;;21.15;10.70;;;;;;;-1.47;100.00;99766.06;4200811;28;20048;-74
2022/11/27 01:29:08;;;;;;;16.10;9.70;;;;;;;-1.53;100.00;99769.03;4200354;28;20066;-74
2022/11/27 01:31:15;;;;;;;17.27;9.52;;;;;;;-1.57;100.00;99763.34;4200490;28;20151;-74
2022/11/27 01:33:16;;;;;;;18.95;10.70;;;;;;;-1.52;100.00;99765.22;4199441;28;20075;-74
2022/11/27 01:35:16;;;;;;;18.15;10.63;;;;;;;-1.47;100.00;99757.94;4200872;28;20375;-74
2022/11/27 01:37:17;;;;;;;21.20;11.93;;;;;;;-1.39;100.00;99753.88;4201577;28;20051;-74
2022/11/27 01:39:19;;;;;;;25.08;11.75;;;;;;;-1.34;100.00;99762.00;4201555;28;20050;-74
2022/11/27 01:41:19;;;;;;;;;;;;;;;-1.35;100.00;99765.81;4201896;28;20488;-74
2022/11/27 01:43:37;;;;;;;18.88;10.40;;;;;;;-1.40;100.00;99767.72;4201468;28;19969;-74
2022/11/27 01:45:37;;;;;;;21.60;10.90;;;;;;;-1.47;100.00;99754.41;4201490;28;20075;-74
2022/11/27 01:47:45;;;;;;;19.80;11.15;;;;;;;-1.42;100.00;99757.09;4202147;28;20889;-74
2022/11/27 01:49:49;;;;;;;18.02;11.00;;;;;;;-1.41;100.00;99758.72;4201266;28;20541;-74
2022/11/27 01:51:56;;;;;;;23.67;11.93;;;;;;;-1.42;100.00;99748.97;4201641;28;20427;-74
2022/11/27 01:53:56;;;;;;;16.85;10.40;;;;;;;-1.40;100.00;99746.00;4201058;28;20043;-74
2022/11/27 01:55:59;;;;;;;21.15;10.82;;;;;;;-1.36;100.00;99749.81;4201593;28;20326;-74
2022/11/27 01:58:07;;;;;;;20.23;10.50;;;;;;;-1.45;100.00;99739.47;4201114;28;20531;-74
2022/11/27 02:00:11;;;;;;;20.95;10.13;;;;;;;-1.42;100.00;99738.09;4200145;28;20059;-73
2022/11/27 02:02:12;;;;;;;21.92;10.98;;;;;;;-1.44;100.00;99732.13;4199337;28;20508;-73
2022/11/27 02:04:13;;;;;;;19.38;10.40;;;;;;;-1.43;100.00;99739.19;4202424;28;20063;-73
2022/11/27 02:06:15;;;;;;;19.23;10.68;;;;;;;-1.48;100.00;99725.63;4203897;28;20054;-73
2022/11/27 02:08:17;;;;;;;21.83;10.32;;;;;;;-1.46;100.00;99721.56;4202598;28;20280;-73
2022/11/27 02:10:18;;;;;;;22.37;11.90;;;;;;;-1.46;100.00;99712.59;4204514;28;20070;-73
2022/11/27 02:12:34;;;;;;;19.35;11.02;;;;;;;-1.42;100.00;99724.53;4203950;28;20329;-73
2022/11/27 02:14:43;;;;;;;20.08;10.43;;;;;;;-1.45;100.00;99720.47;4203923;28;20543;-73
2022/11/27 02:16:48;;;;;;;17.80;9.82;;;;;;;-1.45;100.00;99725.91;4203865;28;20263;-74
2022/11/27 02:19:02;;;;;;;17.20;10.35;;;;;;;-1.53;100.00;99720.19;4204122;28;20391;-73
2022/11/27 02:21:24;;;;;;;23.30;11.00;;;;;;;-1.64;100.00;99723.97;4204804;28;20066;-73
2022/11/27 02:23:32;;;;;;;15.68;9.93;;;;;;;-1.75;100.00;99713.06;4203097;28;20058;-73
2022/11/27 02:25:51;;;;;;;19.80;10.65;;;;;;;-1.75;100.00;99714.97;4204218;28;20048;-74
2022/11/27 02:28:14;;;;;;;16.92;9.65;;;;;;;-1.79;100.00;99714.69;4204646;28;20557;-73
2022/11/27 02:30:15;;;;;;;18.23;10.23;;;;;;;-1.85;100.00;99706.78;4203636;28;20040;-74
2022/11/27 02:32:26;;;;;;;21.13;10.50;;;;;;;-1.85;100.00;99706.78;4204471;28;20089;-73
2022/11/27 02:34:38;;;;;;;17.15;9.65;;;;;;;-1.84;100.00;99713.84;4203364;28;20098;-73
2022/11/27 02:36:42;;;;;;;19.55;9.57;;;;;;;-1.84;100.00;99711.13;4203586;28;20080;-73
2022/11/27 02:39:06;;;;;;;17.20;9.38;;;;;;;-1.78;100.00;99705.47;4202923;28;20079;-74
2022/11/27 02:41:14;;;;;;;16.58;9.68;;;;;;;-1.80;100.00;99704.91;4202567;28;20048;-73
2022/11/27 02:43:28;;;;;;;15.48;8.77;;;;;;;-1.86;100.00;99703.25;4202144;28;20442;-74
2022/11/27 02:45:37;;;;;;;15.50;8.63;;;;;;;-1.92;100.00;99703.50;4203489;28;20080;-74
2022/11/27 02:47:39;;;;;;;24.42;9.95;;;;;;;-1.93;100.00;99708.13;4204190;28;20717;-73
2022/11/27 02:49:42;;;;;;;16.33;8.93;;;;;;;-1.91;100.00;99703.25;4203651;28;20132;-74
2022/11/27 02:51:55;;;;;;;16.27;9.32;;;;;;;-1.92;100.00;99704.31;4203507;28;20052;-73
2022/11/27 02:54:00;;;;;;;16.42;9.55;;;;;;;-1.99;100.00;99704.59;4201139;28;20044;-74
2022/11/27 02:56:05;;;;;;;17.25;9.15;;;;;;;-1.90;100.00;99709.47;4202079;28;20036;-74
2022/11/27 02:58:12;;;;;;;21.65;10.48;;;;;;;-1.94;100.00;99701.06;4203253;28;20040;-73
2022/11/27 03:00:13;;;;;;;19.38;9.73;;;;;;;-1.89;100.00;99708.41;4202202;28;20117;-73
2022/11/27 03:02:18;;;;;;;23.08;10.30;;;;;;;-1.89;100.00;99698.38;4203729;28;20044;-74
2022/11/27 03:04:25;;;;;;;22.65;10.75;;;;;;;-1.91;100.00;99700.53;4203042;28;20506;-74
2022/11/27 03:06:35;;;;;;;18.48;10.65;;;;;;;-1.95;100.00;99688.59;4202918;28;20617;-73
2022/11/27 03:08:44;;;;;;;20.60;11.15;;;;;;;-1.95;100.00;99693.19;4203088;28;20427;-73
2022/11/27 03:10:53;;;;;;;20.95;10.07;;;;;;;-1.98;100.00;99687.22;4203438;28;20135;-73
2022/11/27 03:12:53;;;;;;;20.05;9.95;;;;;;;-2.04;100.00;99688.28;4202546;28;20040;-73
2022/11/27 03:14:54;;;;;;;20.20;9.77;;;;;;;-2.10;100.00;99681.22;4203278;28;20056;-73
2022/11/27 03:17:21;;;;;;;18.20;9.48;;;;;;;-2.14;100.00;99680.13;4203018;28;20503;-75
2022/11/27 03:19:41;;;;;;;20.90;10.27;;;;;;;-2.31;100.00;99696.59;4203740;28;20051;-73
2022/11/27 03:21:50;;;;;;;18.02;9.20;;;;;;;-2.40;100.00;99684.63;4184546;28;20041;-74
2022/11/27 03:23:51;;;;;;;21.83;10.55;;;;;;;-2.45;100.00;99684.59;4201951;28;20040;-73
2022/11/27 03:25:51;;;;;;;17.73;9.57;;;;;;;-2.50;100.00;99691.88;4203695;28;20127;-74
2022/11/27 03:27:59;;;;;;;22.48;10.20;;;;;;;-2.55;100.00;99685.34;4203363;28;20060;-75
2022/11/27 03:30:03;;;;;;;20.17;9.38;;;;;;;-2.57;100.00;99681.25;4203525;28;20074;-74
2022/11/27 03:32:04;;;;;;;19.83;9.43;;;;;;;-2.61;100.00;99682.88;4202510;28;20059;-73
2022/11/27 03:34:04;;;;;;;20.52;11.55;;;;;;;-2.68;100.00;99685.81;4202600;28;20126;-73
2022/11/27 03:36:14;;;;;;;14.73;8.82;;;;;;;-2.73;100.00;99677.66;4202781;28;20051;-74
2022/11/27 03:38:15;;;;;;;16.45;9.27;;;;;;;-2.76;100.00;99683.59;4203321;28;20089;-74
2022/11/27 03:40:17;;;;;;;19.85;9.10;;;;;;;-2.77;100.00;99679.25;4202840;28;20032;-76
2022/11/27 03:42:42;;;;;;;17.98;9.60;;;;;;;-2.81;100.00;99670.03;4202821;28;20421;-76
2022/11/27 03:45:30;;;;;;;15.07;8.10;;;;;;;-2.84;100.00;99675.94;4202398;28;20044;-76
2022/11/27 03:48:18;;;;;;;17.17;8.02;;;;;;;-2.86;100.00;99668.09;4155437;28;20568;-75
2022/11/27 03:50:36;;;;;;;14.63;7.65;;;;;;;-2.88;100.00;99674.84;4124344;28;20046;-75
2022/11/27 03:52:51;;;;;;;24.20;8.32;;;;;;;-2.90;100.00;99688.63;4122237;28;20061;-75
2022/11/27 03:55:03;;;;;;;14.75;8.13;;;;;;;-2.94;100.00;99692.13;4135712;28;20503;-75
2022/11/27 03:57:41;;;;;;;29.02;10.00;;;;;;;-2.95;100.00;99685.09;4202494;28;20055;-75
2022/11/27 03:59:46;;;;;;;26.67;10.07;;;;;;;-3.00;100.00;99685.03;4198192;28;20066;-75
2022/11/27 04:01:47;;;;;;;18.73;8.13;;;;;;;-3.03;100.00;99680.16;4203303;28;20056;-75
2022/11/27 04:03:47;;;;;;;19.13;8.85;;;;;;;-3.02;100.00;99679.91;4203019;28;20051;-75
2022/11/27 04:05:47;;;;;;;26.15;9.18;;;;;;;-3.06;100.00;99681.50;4202219;28;20056;-75
2022/11/27 04:07:48;;;;;;;14.13;7.85;;;;;;;-3.10;100.00;99669.53;4203113;28;20048;-75
2022/11/27 04:09:48;;;;;;;23.00;9.30;;;;;;;-3.10;100.00;99661.41;4202679;28;20380;-75
2022/11/27 04:11:48;;;;;;;19.85;9.35;;;;;;;-3.03;100.00;99651.19;4202699;28;20480;-75
2022/11/27 04:13:50;;;;;;;20.48;9.38;;;;;;;-2.99;100.00;99654.19;4201548;28;20135;-75
2022/11/27 04:15:51;;;;;;;19.80;9.80;;;;;;;-3.03;100.00;99661.22;4202674;28;20506;-75
2022/11/27 04:17:51;;;;;;;22.90;9.90;;;;;;;-2.88;100.00;99659.41;4202537;28;20051;-75
2022/11/27 04:19:51;;;;;;;27.38;10.00;;;;;;;-2.82;100.00;99658.34;4202344;28;20123;-75
2022/11/27 04:21:52;;;;;;;27.83;12.40;;;;;;;-2.75;100.00;99668.16;4202897;28;20078;-75
2022/11/27 04:23:52;;;;;;;23.35;11.13;;;;;;;-2.80;100.00;99660.00;4183581;28;20041;-75
2022/11/27 04:25:53;;;;;;;24.17;10.40;;;;;;;-2.86;100.00;99659.16;4201688;28;20048;-75
2022/11/27 04:27:53;;;;;;;20.50;10.15;;;;;;;-2.77;100.00;99675.72;4201637;28;20384;-75
2022/11/27 04:29:54;;;;;;;25.95;9.60;;;;;;;-2.84;100.00;99673.25;4202128;28;20185;-75
2022/11/27 04:31:54;;;;;;;21.58;9.80;;;;;;;-2.92;100.00;99676.44;4202231;28;20047;-75
2022/11/27 04:33:54;;;;;;;23.52;9.80;;;;;;;-2.95;100.00;99669.66;4201530;28;20140;-75
2022/11/27 04:35:55;;;;;;;20.30;9.43;;;;;;;-2.91;100.00;99676.16;4202021;28;20048;-75
2022/11/27 04:37:56;;;;;;;19.40;8.82;;;;;;;-2.99;100.00;99671.25;4202546;28;20135;-75
2022/11/27 04:39:56;;;;;;;19.67;9.35;;;;;;;-3.04;100.00;99676.63;4202164;28;20127;-75
2022/11/27 04:41:57;;;;;;;19.35;8.82;;;;;;;-3.05;100.00;99666.88;4200339;28;20758;-75
2022/11/27 04:43:57;;;;;;;18.15;8.90;;;;;;;-3.07;100.00;99676.31;4199359;28;20562;-75
2022/11/27 04:45:57;;;;;;;21.13;9.50;;;;;;;-3.12;100.00;99675.22;4199122;28;20087;-75
2022/11/27 04:47:58;;;;;;;17.95;8.02;;;;;;;-3.20;100.00;99680.31;4202821;28;20067;-75
2022/11/27 04:49:58;;;;;;;24.13;8.57;;;;;;;-3.24;100.00;99684.59;4200749;28;20040;-75
2022/11/27 04:51:58;;;;;;;15.63;8.25;;;;;;;-3.29;100.00;99679.97;4202257;28;20539;-75
2022/11/27 04:53:59;;;;;;;14.82;7.72;;;;;;;-3.35;100.00;99685.59;4200305;28;20118;-75
2022/11/27 04:55:59;;;;;;;16.42;7.95;;;;;;;-3.43;100.00;99687.69;4201011;28;20098;-75
2022/11/27 04:58:00;;;;;;;16.98;7.30;;;;;;;-3.51;100.00;99676.50;4197733;28;20528;-75
2022/11/27 05:00:00;;;;;;;13.60;6.97;;;;;;;-3.46;100.00;99681.97;4199444;28;20445;-75
2022/11/27 05:02:01;;;;;;;15.13;6.55;;;;;;;-3.45;100.00;99684.41;4201492;28;21039;-75
2022/11/27 05:04:01;;;;;;;13.90;6.78;;;;;;;-3.51;100.00;99673.81;4199833;28;20048;-75
2022/11/27 05:06:02;;;;;;;15.00;7.43;;;;;;;-3.54;100.00;99677.03;4197112;28;20456;-75
2022/11/27 05:08:02;;;;;;;17.27;7.85;;;;;;;-3.58;100.00;99676.72;4200661;28;20028;-75
2022/11/27 05:10:04;;;;;;;16.98;7.28;;;;;;;-3.59;100.00;99674.25;4199761;28;20121;-75
2022/11/27 05:12:05;;;;;;;13.88;7.40;;;;;;;-3.60;100.00;99680.75;4199030;28;20310;-75
2022/11/27 05:14:14;;;;;;;12.45;7.13;;;;;;;-3.60;100.00;99681.56;4199675;28;20028;-74
2022/11/27 05:16:14;;;;;;;14.02;7.53;;;;;;;-3.48;100.00;99671.38;4199522;28;20028;-75
2022/11/27 05:18:14;;;;;;;15.27;6.70;;;;;;;-3.40;100.00;99678.22;4200733;28;20437;-75
2022/11/27 05:20:15;;;;;;;17.63;6.95;;;;;;;-3.44;100.00;99671.72;4201147;28;20115;-75
2022/11/27 05:22:15;;;;;;;17.00;7.68;;;;;;;-3.50;100.00;99670.84;4201069;28;20059;-75
2022/11/27 05:24:18;;;;;;;14.63;6.53;;;;;;;-3.51;100.00;99665.69;4198027;28;20043;-75
2022/11/27 05:26:18;;;;;;;13.75;6.25;;;;;;;-3.56;100.00;99668.34;4200573;28;20036;-75
2022/11/27 05:28:19;;;;;;;13.70;7.28;;;;;;;-3.60;100.00;99668.03;4200936;28;20542;-75
2022/11/27 05:30:19;;;;;;;19.15;7.32;;;;;;;-3.54;100.00;99675.13;4201367;28;20057;-75
2022/11/27 05:32:20;;;;;;;17.30;6.85;;;;;;;-3.46;100.00;99674.69;4198371;28;20051;-75
2022/11/27 05:34:20;;;;;;;18.17;8.05;;;;;;;-3.40;100.00;99664.69;4199823;28;20174;-75
2022/11/27 05:36:21;;;;;;;17.98;8.02;;;;;;;-3.40;100.00;99668.22;4200758;28;20771;-75
2022/11/27 05:38:21;;;;;;;18.48;8.82;;;;;;;-3.32;100.00;99658.00;4195587;28;20474;-75
2022/11/27 05:40:21;;;;;;;15.98;8.00;;;;;;;-3.34;100.00;99652.03;4196529;28;20080;-75
2022/11/27 05:42:22;;;;;;;15.70;8.10;;;;;;;-3.26;100.00;99660.47;4201242;28;20083;-75
2022/11/27 05:44:22;;;;;;;16.58;8.82;;;;;;;-3.24;100.00;99666.44;4183177;28;20059;-75
2022/11/27 05:46:22;;;;;;;15.18;7.80;;;;;;;-3.32;100.00;99652.56;4203397;28;20523;-75
2022/11/27 05:48:23;;;;;;;15.50;7.82;;;;;;;-3.40;100.00;99645.75;4203648;28;20541;-75
2022/11/27 05:50:23;;;;;;;13.60;7.28;;;;;;;-3.47;100.00;99654.09;4204498;28;20164;-75
2022/11/27 05:52:23;;;;;;;16.23;7.35;;;;;;;-3.43;100.00;99648.97;4203791;28;20126;-75
2022/11/27 05:54:24;;;;;;;15.57;8.55;;;;;;;-3.40;100.00;99649.28;4204208;28;20042;-75
2022/11/27 05:56:24;;;;;;;18.15;7.97;;;;;;;-3.45;100.00;99643.84;4204714;28;20487;-75
2022/11/27 05:58:24;;;;;;;15.23;8.80;;;;;;;-3.36;100.00;99637.94;4204936;28;20051;-75
2022/11/27 06:00:25;;;;;;;14.93;8.10;;;;;;;-3.35;100.00;99647.69;4203332;28;20086;-75
2022/11/27 06:02:26;;;;;;;20.35;8.07;;;;;;;-3.47;100.00;99629.75;4204283;28;20075;-75
2022/11/27 06:04:26;;;;;;;11.73;6.88;;;;;;;-3.49;100.00;99626.47;4204274;28;20117;-75
2022/11/27 06:06:27;;;;;;;14.20;7.00;;;;;;;-3.37;100.00;99628.19;4186287;28;20041;-75
2022/11/27 06:08:27;;;;;;;14.18;7.18;;;;;;;-3.36;100.00;99630.66;4143507;27;20075;-75
2022/11/27 06:10:28;;;;;;;15.48;7.88;;;;;;;-3.45;100.00;99627.59;4202748;28;20085;-75
2022/11/27 06:12:30;;;;;;;12.52;7.15;;;;;;;-3.53;100.00;99619.97;4202451;28;20048;-75
2022/11/27 06:14:33;;;;;;;14.52;7.68;;;;;;;-3.52;100.00;99621.59;4202104;28;20069;-75
2022/11/27 06:16:34;;;;;;;12.60;7.53;;;;;;;-3.43;100.00;99622.75;4201568;28;20051;-75
2022/11/27 06:18:34;;;;;;;14.40;7.85;;;;;;;-3.43;100.00;99611.91;4184368;28;20032;-75
2022/11/27 06:20:34;;;;;;;12.73;7.60;;;;;;;-3.53;100.00;99611.84;4203603;28;20048;-75
2022/11/27 06:22:35;;;;;;;13.75;6.80;;;;;;;-3.53;100.00;99616.44;4202328;28;20036;-75
2022/11/27 06:24:35;;;;;;;15.93;7.50;;;;;;;-3.54;100.00;99623.75;4203752;28;20052;-75
2022/11/27 06:26:35;;;;;;;13.82;7.75;;;;;;;-3.51;100.00;99612.38;4203879;28;20442;-75
2022/11/27 06:28:36;;;;;;;14.68;7.80;;;;;;;-3.44;100.00;99614.88;4203520;28;20044;-75
2022/11/27 06:30:37;;;;;;;12.93;6.97;;;;;;;-3.43;100.00;99602.97;4202724;28;20051;-75
2022/11/27 06:32:37;;;;;;;13.20;7.65;;;;;;;-3.42;100.00;99597.31;4203334;28;20518;-75
2022/11/27 06:34:37;;;;;;;10.02;6.50;;;;;;;-3.41;100.00;99590.81;4204881;28;20502;-75
2022/11/27 06:36:41;;;;;;;17.67;7.20;;;;;;;-3.39;100.00;99593.28;4203955;28;20841;-75
2022/11/27 06:38:42;;;;;;;14.93;7.80;;;;;;;-3.41;100.00;99587.28;4203684;28;20714;-75
2022/11/27 06:40:42;;;;;;;14.07;7.57;;;;;;;-3.48;100.00;99579.38;4204536;28;20048;-75
2022/11/27 06:42:43;;;;;;;14.43;6.63;;;;;;;-3.59;100.00;99579.59;4203677;28;20120;-75
2022/11/27 06:44:43;;;;;;;12.38;5.55;;;;;;;-3.70;100.00;99586.81;4204093;28;20048;-75
2022/11/27 06:46:43;;;;;;;12.80;6.35;;;;;;;-3.55;100.00;99602.34;4203443;28;20044;-75
2022/11/27 06:48:45;;;;;;;12.38;6.43;;;;;;;-3.50;100.00;99595.06;4205057;28;20483;-75
2022/11/27 06:50:45;;;;;;;14.00;6.88;;;;;;;-3.51;100.00;99590.75;4202570;28;20032;-75
2022/11/27 06:52:46;;;;;;;12.82;7.70;;;;;;;-3.45;100.00;99589.72;4202849;28;20043;-75
2022/11/27 06:54:46;;;;;;;17.35;7.95;;;;;;;-3.51;100.00;99588.03;4201747;28;20052;-75
2022/11/27 06:56:49;;;;;;;20.50;8.60;;;;;;;-3.54;100.00;99585.03;4201929;28;20059;-75
2022/11/27 06:58:54;;;;;;;13.05;7.90;;;;;;;-3.60;100.00;99586.06;4201832;28;20159;-75
2022/11/27 07:00:59;;;;;;;18.40;7.30;;;;;;;-3.75;100.00;99579.47;4199843;28;20131;-75
2022/11/27 07:02:59;;;;;;;15.80;7.18;;;;;;;-3.81;100.00;99582.38;4200441;28;20117;-75
2022/11/27 07:04:59;;;;;;;15.95;8.23;;;;;;;-3.77;100.00;99580.78;4203168;28;20048;-75
2022/11/27 07:06:59;;;;;;;16.50;8.18;;;;;;;-3.83;100.00;99576.41;4202956;28;20376;-75
2022/11/27 07:09:00;;;;;;;14.27;7.45;;;;;;;-3.84;100.00;99575.59;4202576;28;20036;-75
2022/11/27 07:11:06;;;;;;;20.15;10.10;;;;;;;-3.83;100.00;99579.09;4203853;28;20039;-75
2022/11/27 07:13:06;;;;;;;21.58;11.35;;;;;;;-3.80;100.00;99575.91;4202527;28;20054;-75
2022/11/27 07:15:08;;;;;;;21.70;11.10;;;;;;;-3.74;100.00;99569.44;4203003;28;20642;-75
2022/11/27 07:17:08;;;;;;;21.77;10.30;;;;;;;-3.73;100.00;99576.50;4203678;28;20048;-75
2022/11/27 07:19:09;;;;;;;16.98;9.10;;;;;;;-3.77;100.00;99569.97;4203323;28;20032;-75
2022/11/27 07:21:10;;;;;;;22.80;10.82;;;;;;;-3.81;100.00;99571.56;4203013;28;20040;-75
2022/11/27 07:23:10;;;;;;;24.65;12.63;;;;;;;-3.85;100.00;99565.84;4201959;28;20040;-75
2022/11/27 07:25:10;;;;;;;29.48;14.90;;;;;;;-3.88;100.00;99562.88;4203118;28;20509;-75
2022/11/27 07:27:11;;;;;;;28.95;12.32;;;;;;;-3.90;100.00;99573.09;4203906;28;20365;-75
2022/11/27 07:29:11;;;;;;;20.52;12.75;;;;;;;-3.92;100.00;99576.06;4202705;28;20047;-75
2022/11/27 07:31:14;;;;;;;25.15;13.30;;;;;;;-3.90;100.00;99567.69;4203398;28;20071;-75
2022/11/27 07:33:14;;;;;;;28.30;13.05;;;;;;;-3.91;100.00;99571.47;4202237;28;20480;-75
2022/11/27 07:35:14;;;;;;;22.92;10.90;;;;;;;-3.93;100.00;99571.72;4203490;28;20929;-75
2022/11/27 07:37:14;;;;;;;39.00;19.15;;;;;;;-3.88;100.00;99562.88;4203210;28;20048;-75
2022/11/27 07:39:16;;;;;;;32.22;16.70;;;;;;;-3.89;100.00;99572.84;4203398;28;20043;-75
2022/11/27 07:41:16;;;;;;;35.15;18.23;;;;;;;-3.90;100.00;99571.19;4203535;28;20052;-75
2022/11/27 07:43:17;;;;;;;39.20;17.95;;;;;;;-3.97;100.00;99566.03;4201700;28;20071;-75
2022/11/27 07:45:17;;;;;;;42.22;17.33;;;;;;;-4.01;100.00;99561.38;4202980;28;20036;-75
2022/11/27 07:47:17;;;;;;;29.92;14.75;;;;;;;-4.00;100.00;99555.72;4203175;28;20044;-75
2022/11/27 07:49:18;;;;;;;32.53;15.52;;;;;;;-3.97;100.00;99547.09;4203226;28;20407;-75
2022/11/27 07:51:20;;;;;;;29.77;14.60;;;;;;;-3.91;100.00;99549.84;4203343;28;20048;-75
2022/11/27 07:53:20;;;;;;;30.85;14.00;;;;;;;-3.86;100.00;99537.19;4202236;28;20048;-75
2022/11/27 07:55:21;;;;;;;28.40;14.13;;;;;;;-3.73;100.00;99522.41;4203284;28;20511;-75
2022/11/27 07:57:21;;;;;;;22.08;12.27;;;;;;;-3.63;100.00;99527.91;4201932;28;20040;-75
2022/11/27 07:59:21;;;;;;;35.95;13.90;;;;;;;-3.62;100.00;99521.41;4202231;28;20119;-75
2022/11/27 08:01:21;;;;;;;32.67;15.00;;;;;;;-3.55;100.00;99518.50;4202318;28;20040;-74
2022/11/27 08:03:23;;;;;;;29.30;14.43;;;;;;;-3.53;100.00;99527.97;4202333;28;20409;-75
2022/11/27 08:05:23;;;;;;;32.20;17.20;;;;;;;-3.53;100.00;99533.38;4202629;28;20047;-75
2022/11/27 08:07:27;;;;;;;41.90;17.52;;;;;;;-3.49;100.00;99526.34;4202597;28;20040;-75
2022/11/27 08:09:28;;;;;;;36.42;16.38;;;;;;;-3.46;100.00;99530.47;4203161;28;20052;-73
2022/11/27 08:11:34;;;;;;;38.33;19.00;;;;;;;-3.45;100.00;99530.19;4202333;28;20081;-74
2022/11/27 08:13:34;;;;;;;47.95;22.05;;;;;;;-3.40;100.00;99527.50;4200747;28;20060;-75
2022/11/27 08:15:36;;;;;;;55.53;24.92;;;;;;;-3.33;100.00;99531.88;4201594;28;20091;-75
2022/11/27 08:17:36;;;;;;;66.22;30.98;;;;;;;-3.29;100.00;99530.28;4202552;28;20400;-75
2022/11/27 08:19:36;;;;;;;56.38;26.58;;;;;;;-3.30;100.00;99525.97;4202803;28;20295;-75
2022/11/27 08:21:37;;;;;;;49.78;22.90;;;;;;;-3.28;100.00;99523.78;4202151;28;20048;-75
2022/11/27 08:23:37;;;;;;;36.35;17.50;;;;;;;-3.26;100.00;99519.75;4201635;28;20051;-75
2022/11/27 08:25:37;;;;;;;40.95;20.00;;;;;;;-3.19;100.00;99517.63;4202334;28;20074;-75
2022/11/27 08:27:38;;;;;;;36.63;18.63;;;;;;;-3.16;100.00;99521.69;4201917;28;20055;-75
2022/11/27 08:29:38;;;;;;;34.70;18.88;;;;;;;-3.13;100.00;99518.47;4202148;28;20794;-75
2022/11/27 08:31:38;;;;;;;37.50;19.48;;;;;;;-3.13;100.00;99505.75;4202149;28;20059;-75
2022/11/27 08:33:39;;;;;;;36.92;19.88;;;;;;;-3.09;100.00;99518.75;4201442;28;20448;-75
2022/11/27 08:35:47;;;;;;;40.38;22.75;;;;;;;-3.04;100.00;99521.50;4201965;28;20055;-75
2022/11/27 08:37:47;;;;;;;40.13;21.05;;;;;;;-3.00;100.00;99511.75;4202166;28;20036;-75
2022/11/27 08:39:47;;;;;;;33.80;17.60;;;;;;;-2.89;100.00;99508.03;4202247;28;20380;-75
2022/11/27 08:41:48;;;;;;;31.70;18.35;;;;;;;-2.82;100.00;99508.56;4202019;28;20040;-75
2022/11/27 08:43:48;;;;;;;37.13;17.75;;;;;;;-2.75;100.00;99505.63;4201494;28;20075;-75
2022/11/27 08:45:49;;;;;;;37.05;18.10;;;;;;;-2.72;100.00;99508.63;4202074;28;20072;-75
2022/11/27 08:47:49;;;;;;;32.92;17.50;;;;;;;-2.63;100.00;99507.03;4202816;28;20357;-75
2022/11/27 08:49:49;;;;;;;24.52;14.90;;;;;;;-2.58;100.00;99507.03;4201004;28;20086;-75
2022/11/27 08:51:50;;;;;;;18.40;11.95;;;;;;;-2.53;100.00;99503.53;4201585;28;20049;-75
2022/11/27 08:53:51;;;;;;;19.27;11.73;;;;;;;-2.47;100.00;99497.03;4201203;28;20399;-75
2022/11/27 08:55:51;;;;;;;18.70;9.98;;;;;;;-2.40;100.00;99500.31;4201863;28;20044;-75
2022/11/27 08:57:51;;;;;;;17.23;9.55;;;;;;;-2.27;100.00;99490.84;4201970;28;20056;-75
2022/11/27 08:59:52;;;;;;;20.80;11.43;;;;;;;-2.20;100.00;99490.56;4202759;28;20040;-75
2022/11/27 09:01:52;;;;;;;17.88;11.07;;;;;;;-2.17;100.00;99487.31;4202177;28;20735;-74
2022/11/27 09:03:52;;;;;;;25.67;12.10;;;;;;;-2.09;100.00;99492.19;4201819;28;20468;-75
2022/11/27 09:05:53;;;;;;;18.92;12.25;;;;;;;-2.02;100.00;99503.59;4201995;28;20139;-75
2022/11/27 09:07:53;;;;;;;23.85;12.07;;;;;;;-1.94;100.00;99494.13;4202492;28;20036;-75
2022/11/27 09:09:53;;;;;;;18.95;10.48;;;;;;;-1.87;100.00;99489.25;4202057;28;20043;-75
2022/11/27 09:11:54;;;;;;;24.10;10.20;;;;;;;-1.83;100.00;99493.00;4201457;28;20393;-75
2022/11/27 09:13:54;;;;;;;25.33;9.65;;;;;;;-1.81;100.00;99486.25;4202662;28;20496;-75
2022/11/27 09:15:56;;;;;;;16.75;8.23;;;;;;;-1.75;100.00;99490.56;4205334;28;20055;-74
2022/11/27 09:17:56;;;;;;;16.80;9.32;;;;;;;-1.69;100.00;99499.53;4205517;28;20072;-74
2022/11/27 09:19:57;;;;;;;23.33;10.13;;;;;;;-1.65;100.00;99497.09;4205220;28;20043;-74
2022/11/27 09:21:58;;;;;;;20.67;9.68;;;;;;;-1.61;100.00;99492.75;4205529;28;20067;-75